Terminal Aerodrome Forecast
Issued by NWS Houston/Galveston TX

Home | Current Version | Previous Version | Text Only | Print | Product List | Glossary On
Versions: 1 2 3 4 5 6 7 8 9 10 11 12 13 14 15 16 17 18 19 20 21 22 23 24 25 26 27 28 29 30 31 32
000
FTUS44 KHGX 260533 CCA
TAFHOU
TAF COR
KHOU 260533Z 2606/2706 33004KT P6SM VCTS BKN023 BKN030CB BKN250
     FM260800 VRB03KT P6SM VCSH BKN025
      TEMPO 2608/2612 -TSRA BKN025CB
     FM261500 10004KT P6SM VCSH SCT025 BKN150
     FM261800 08006KT P6SM VCTS BKN035CB
      TEMPO 2619/2623 VRB20KT 2SM TSRA OVC020CB
     FM270300 05003KT P6SM SCT060 OVC120=

USA.gov is the U.S. government's official web portal to all federal, state and local government web resources and services.